createdAt,value
2018-09-02T00:00:30.751Z,17.09
2018-09-02T00:02:58.953Z,17.07
2018-09-02T00:05:27.970Z,17.09
2018-09-02T00:07:56.215Z,17.09
2018-09-02T00:10:24.471Z,17.10
2018-09-02T00:12:52.687Z,17.10
2018-09-02T00:15:20.973Z,17.10
2018-09-02T00:17:49.521Z,17.11
2018-09-02T00:20:17.722Z,17.13
2018-09-02T00:22:45.934Z,17.13
2018-09-02T00:25:14.157Z,17.12
2018-09-02T00:27:42.343Z,17.11
2018-09-02T00:30:10.531Z,17.11
2018-09-02T00:32:38.847Z,17.10
2018-09-02T00:35:07.407Z,17.09
2018-09-02T00:37:35.815Z,17.10
2018-09-02T00:40:04.074Z,17.11
2018-09-02T00:42:32.363Z,17.11
2018-09-02T00:45:00.663Z,17.11
2018-09-02T00:47:28.934Z,17.12
2018-09-02T00:49:57.153Z,17.10
2018-09-02T00:52:25.345Z,17.08
2018-09-02T00:54:53.556Z,17.07
2018-09-02T00:57:21.844Z,17.07
2018-09-02T00:59:50.163Z,17.04
2018-09-02T01:02:18.349Z,17.02
2018-09-02T01:04:46.556Z,17.01
2018-09-02T01:07:14.749Z,16.99
2018-09-02T01:09:42.989Z,16.98
2018-09-02T01:12:11.226Z,16.98
2018-09-02T01:14:39.426Z,17.00
2018-09-02T01:17:07.598Z,17.02
2018-09-02T01:19:35.766Z,17.02
2018-09-02T01:22:04.055Z,17.04
2018-09-02T01:24:32.347Z,17.02
2018-09-02T01:27:00.595Z,17.03
2018-09-02T01:29:28.775Z,17.01
2018-09-02T01:31:57.052Z,17.00
2018-09-02T01:34:25.361Z,16.98
2018-09-02T01:36:53.582Z,16.97
2018-09-02T01:39:21.797Z,16.96
2018-09-02T01:41:49.957Z,16.95
2018-09-02T01:44:18.183Z,16.94
2018-09-02T01:46:46.390Z,16.93
2018-09-02T01:49:14.603Z,16.93
2018-09-02T01:51:42.766Z,16.91
2018-09-02T01:54:10.950Z,16.89
2018-09-02T01:56:39.163Z,16.88
2018-09-02T01:59:07.451Z,16.90
2018-09-02T02:01:35.694Z,16.89
2018-09-02T02:04:04.019Z,16.92
2018-09-02T02:06:32.287Z,16.90
2018-09-02T02:09:00.496Z,16.88
2018-09-02T02:11:28.940Z,16.85
2018-09-02T02:13:57.131Z,16.82
2018-09-02T02:16:25.326Z,16.80
2018-09-02T02:18:53.527Z,16.79
2018-09-02T02:21:21.733Z,16.77
2018-09-02T02:23:49.980Z,16.76
2018-09-02T02:26:18.183Z,16.77
2018-09-02T02:28:46.384Z,16.76
2018-09-02T02:31:14.591Z,16.76
2018-09-02T02:33:42.785Z,16.74
2018-09-02T02:36:10.982Z,16.70
2018-09-02T02:38:39.156Z,16.68
2018-09-02T02:41:07.315Z,16.65
2018-09-02T02:43:35.512Z,16.63
2018-09-02T02:46:03.748Z,16.62
2018-09-02T02:48:32.015Z,16.60
2018-09-02T02:51:00.220Z,16.58
2018-09-02T02:53:28.402Z,16.56
2018-09-02T02:56:03.183Z,16.55
2018-09-02T02:58:31.414Z,16.54
2018-09-02T03:00:59.667Z,16.54
2018-09-02T03:03:27.842Z,16.51
2018-09-02T03:05:56.028Z,16.52
2018-09-02T03:08:24.236Z,16.51
2018-09-02T03:10:52.454Z,16.48
2018-09-02T03:13:20.772Z,16.46
2018-09-02T03:15:48.934Z,16.47
2018-09-02T03:18:17.140Z,16.47
2018-09-02T03:20:45.334Z,16.46
2018-09-02T03:23:13.585Z,16.44
2018-09-02T03:25:41.823Z,16.42
2018-09-02T03:28:09.994Z,16.42
2018-09-02T03:30:38.176Z,16.40
2018-09-02T03:33:06.423Z,16.37
2018-09-02T03:35:34.636Z,16.34
2018-09-02T03:38:02.864Z,16.34
2018-09-02T03:40:31.186Z,16.33
2018-09-02T03:42:59.362Z,16.32
2018-09-02T03:45:27.554Z,16.32
2018-09-02T03:47:55.750Z,16.29
2018-09-02T03:50:23.935Z,16.31
2018-09-02T03:52:52.162Z,16.29
2018-09-02T03:55:20.374Z,16.29
2018-09-02T03:57:48.729Z,16.28
2018-09-02T04:00:16.916Z,16.29
2018-09-02T04:02:45.128Z,16.29
2018-09-02T04:05:13.365Z,16.28
2018-09-02T04:07:41.522Z,16.27
2018-09-02T04:10:09.796Z,16.24
2018-09-02T04:12:38.069Z,16.24
2018-09-02T04:15:07.085Z,16.25
2018-09-02T04:17:35.292Z,16.23
2018-09-02T04:20:03.503Z,16.21
2018-09-02T04:22:31.752Z,16.19
2018-09-02T04:24:59.981Z,16.18
2018-09-02T04:27:28.165Z,16.16
2018-09-02T04:29:56.385Z,16.13
2018-09-02T04:32:24.535Z,16.11
2018-09-02T04:34:52.806Z,16.07
2018-09-02T04:37:21.027Z,16.08
2018-09-02T04:39:49.245Z,16.08
2018-09-02T04:42:17.535Z,16.07
2018-09-02T04:44:45.814Z,16.05
2018-09-02T04:47:13.926Z,16.03
2018-09-02T04:49:42.154Z,16.01
2018-09-02T04:52:10.363Z,16.01
2018-09-02T04:54:38.577Z,16.00
2018-09-02T04:57:06.886Z,16.00
2018-09-02T04:59:35.080Z,15.98
2018-09-02T05:02:03.310Z,15.94
2018-09-02T05:04:31.559Z,15.93
2018-09-02T05:06:59.800Z,15.94
2018-09-02T05:09:27.987Z,15.93
2018-09-02T05:11:56.191Z,15.92
2018-09-02T05:14:24.411Z,15.92
2018-09-02T05:16:52.640Z,15.90
2018-09-02T05:19:20.907Z,15.89
2018-09-02T05:21:49.099Z,15.88
2018-09-02T05:24:17.326Z,15.87
2018-09-02T05:26:45.535Z,15.88
2018-09-02T05:29:13.820Z,15.88
2018-09-02T05:31:42.062Z,15.89
2018-09-02T05:34:10.278Z,15.90
2018-09-02T05:36:38.432Z,15.90
2018-09-02T05:39:08.763Z,15.91
2018-09-02T05:41:37.031Z,15.92
2018-09-02T05:44:05.462Z,15.94
2018-09-02T05:46:33.937Z,15.96
2018-09-02T05:49:02.388Z,15.98
2018-09-02T05:51:30.830Z,15.99
2018-09-02T05:53:59.003Z,16.02
2018-09-02T05:56:27.244Z,16.03
2018-09-02T05:58:55.458Z,16.04
2018-09-02T06:01:23.639Z,16.06
2018-09-02T06:03:52.783Z,16.09
2018-09-02T06:06:21.082Z,16.10
2018-09-02T06:08:49.331Z,16.13
2018-09-02T06:11:17.602Z,16.13
2018-09-02T06:13:46.215Z,16.14
2018-09-02T06:16:14.695Z,16.16
2018-09-02T06:18:43.115Z,16.17
2018-09-02T06:21:11.422Z,16.20
2018-09-02T06:23:39.899Z,16.22
2018-09-02T06:26:08.155Z,16.25
2018-09-02T06:28:36.349Z,16.26
2018-09-02T06:31:04.503Z,16.28
2018-09-02T06:33:32.792Z,16.29
2018-09-02T06:36:00.971Z,16.29
2018-09-02T06:38:29.271Z,16.33
2018-09-02T06:40:57.463Z,16.35
2018-09-02T06:43:25.621Z,16.36
2018-09-02T06:45:53.791Z,16.39
2018-09-02T06:48:22.072Z,16.43
2018-09-02T06:50:50.375Z,16.45
2018-09-02T06:53:24.983Z,16.47
2018-09-02T06:55:53.275Z,16.49
2018-09-02T06:58:21.512Z,16.51
2018-09-02T07:00:49.700Z,16.55
2018-09-02T07:03:17.913Z,16.59
2018-09-02T07:05:46.144Z,16.63
2018-09-02T07:08:14.400Z,16.67
2018-09-02T07:10:43.212Z,16.70
2018-09-02T07:13:11.642Z,16.74
2018-09-02T07:15:39.917Z,16.77
2018-09-02T07:18:08.220Z,16.77
2018-09-02T07:20:36.387Z,16.80
2018-09-02T07:23:05.126Z,16.82
2018-09-02T07:25:33.727Z,16.83
2018-09-02T07:28:01.955Z,16.88
2018-09-02T07:30:30.317Z,16.92
2018-09-02T07:32:58.755Z,16.95
2018-09-02T07:35:27.059Z,17.00
2018-09-02T07:37:55.547Z,17.04
2018-09-02T07:40:23.706Z,17.08
2018-09-02T07:42:51.970Z,17.11
2018-09-02T07:45:20.690Z,17.12
2018-09-02T07:47:48.979Z,17.16
2018-09-02T07:50:17.286Z,17.17
2018-09-02T07:52:45.547Z,17.22
2018-09-02T07:55:13.814Z,17.24
2018-09-02T07:57:41.987Z,17.27
2018-09-02T08:00:11.159Z,17.30
2018-09-02T08:02:39.774Z,17.32
2018-09-02T08:05:07.947Z,17.37
2018-09-02T08:07:36.118Z,17.43
2018-09-02T08:10:04.616Z,17.47
2018-09-02T08:12:32.930Z,17.50
2018-09-02T08:15:01.097Z,17.56
2018-09-02T08:17:29.321Z,17.61
2018-09-02T08:19:57.963Z,17.65
2018-09-02T08:22:26.476Z,17.71
2018-09-02T08:24:54.787Z,17.75
2018-09-02T08:27:22.999Z,17.75
2018-09-02T08:29:51.195Z,17.76
2018-09-02T08:32:19.566Z,17.78
2018-09-02T08:34:47.844Z,17.82
2018-09-02T08:37:16.027Z,17.88
2018-09-02T08:39:44.204Z,17.93
2018-09-02T08:42:13.659Z,17.98
2018-09-02T08:44:41.834Z,18.03
2018-09-02T08:47:10.088Z,18.08
2018-09-02T08:49:38.267Z,18.14
2018-09-02T08:52:07.221Z,18.20
2018-09-02T08:54:35.639Z,18.25
2018-09-02T08:57:03.884Z,18.30
2018-09-02T08:59:32.126Z,18.37
2018-09-02T09:02:00.334Z,18.43
2018-09-02T09:04:28.773Z,18.49
2018-09-02T09:06:57.004Z,18.55
2018-09-02T09:09:25.216Z,18.62
2018-09-02T09:11:53.386Z,18.67
2018-09-02T09:14:21.586Z,18.73
2018-09-02T09:16:49.934Z,18.81
2018-09-02T09:19:18.023Z,18.88
2018-09-02T09:21:46.250Z,18.95
2018-09-02T09:24:14.429Z,19.04
2018-09-02T09:26:42.719Z,19.14
2018-09-02T09:29:10.921Z,19.21
2018-09-02T09:31:39.130Z,19.29
2018-09-02T09:34:07.451Z,19.37
2018-09-02T09:36:35.647Z,19.43
2018-09-02T09:39:04.879Z,19.49
2018-09-02T09:41:33.088Z,19.57
2018-09-02T09:44:01.333Z,19.61
2018-09-02T09:46:29.770Z,19.66
2018-09-02T09:48:57.948Z,19.72
2018-09-02T09:51:26.169Z,19.80
2018-09-02T09:53:54.003Z,19.88
2018-09-02T09:56:22.193Z,19.96
2018-09-02T09:58:50.510Z,20.04
2018-09-02T10:01:18.750Z,20.12
2018-09-02T10:03:47.025Z,20.19
2018-09-02T10:06:15.134Z,20.29
2018-09-02T10:08:43.422Z,20.38
2018-09-02T10:11:11.624Z,20.49
2018-09-02T10:13:39.830Z,20.59
2018-09-02T10:16:08.037Z,20.73
2018-09-02T10:18:36.211Z,20.88
2018-09-02T10:21:04.454Z,21.04
2018-09-02T10:23:32.645Z,21.17
2018-09-02T10:26:00.864Z,21.35
2018-09-02T10:28:29.185Z,21.55
2018-09-02T10:30:57.543Z,21.60
2018-09-02T10:33:25.900Z,21.65
2018-09-02T10:36:00.770Z,21.82
2018-09-02T10:38:29.040Z,21.84
2018-09-02T10:40:57.268Z,21.75
2018-09-02T10:43:25.452Z,21.66
2018-09-02T10:45:53.654Z,21.57
2018-09-02T10:48:21.908Z,21.62
2018-09-02T10:50:50.136Z,21.69
2018-09-02T10:53:18.303Z,21.71
2018-09-02T10:55:46.990Z,21.69
2018-09-02T10:58:15.258Z,21.69
2018-09-02T11:00:43.542Z,21.90
2018-09-02T11:03:11.770Z,22.07
2018-09-02T11:05:40.023Z,22.27
2018-09-02T11:08:08.322Z,22.59
2018-09-02T11:10:36.539Z,22.89
2018-09-02T11:13:04.879Z,23.20
2018-09-02T11:15:33.038Z,23.44
2018-09-02T11:18:01.323Z,23.67
2018-09-02T11:20:29.551Z,23.87
2018-09-02T11:22:58.202Z,24.06
2018-09-02T11:25:26.510Z,24.22
2018-09-02T11:27:54.714Z,24.26
2018-09-02T11:30:22.926Z,24.35
2018-09-02T11:32:51.166Z,24.26
2018-09-02T11:35:19.586Z,24.26
2018-09-02T11:37:47.823Z,24.38
2018-09-02T11:40:16.214Z,24.60
2018-09-02T11:42:44.454Z,24.85
2018-09-02T11:45:12.750Z,25.04
2018-09-02T11:47:40.956Z,25.20
2018-09-02T11:50:09.217Z,25.44
2018-09-02T11:52:37.482Z,25.49
2018-09-02T11:55:05.758Z,25.52
2018-09-02T11:57:35.357Z,25.43
2018-09-02T12:00:03.853Z,25.18
2018-09-02T12:02:32.168Z,24.98
2018-09-02T12:05:00.433Z,24.80
2018-09-02T12:07:28.647Z,24.64
2018-09-02T12:09:56.860Z,24.56
2018-09-02T12:12:25.069Z,24.45
2018-09-02T12:14:53.505Z,24.30
2018-09-02T12:17:21.599Z,24.15
2018-09-02T12:19:49.795Z,24.04
2018-09-02T12:22:18.054Z,24.11
2018-09-02T12:24:46.310Z,24.19
2018-09-02T12:27:14.548Z,24.27
2018-09-02T12:29:42.778Z,24.36
2018-09-02T12:32:10.946Z,24.53
2018-09-02T12:34:45.699Z,24.62
2018-09-02T12:37:13.987Z,24.63
2018-09-02T12:39:42.249Z,24.53
2018-09-02T12:42:10.518Z,24.41
2018-09-02T12:44:39.598Z,24.26
2018-09-02T12:47:07.954Z,24.10
2018-09-02T12:49:36.142Z,23.96
2018-09-02T12:52:04.511Z,23.83
2018-09-02T12:54:32.696Z,23.74
2018-09-02T12:57:00.988Z,23.65
2018-09-02T12:59:29.216Z,23.61
2018-09-02T13:01:57.763Z,23.61
2018-09-02T13:04:26.006Z,23.63
2018-09-02T13:06:54.256Z,23.59
2018-09-02T13:09:22.592Z,23.49
2018-09-02T13:11:50.879Z,23.66
2018-09-02T13:14:19.319Z,24.02
2018-09-02T13:16:47.556Z,24.50
2018-09-02T13:19:15.887Z,24.74
2018-09-02T13:21:44.460Z,24.76
2018-09-02T13:24:12.688Z,24.62
2018-09-02T13:26:41.007Z,24.52
2018-09-02T13:29:09.175Z,24.40
2018-09-02T13:31:37.494Z,24.38
2018-09-02T13:34:05.752Z,24.50
2018-09-02T13:36:33.971Z,24.57
2018-09-02T13:39:02.269Z,24.58
2018-09-02T13:41:30.520Z,24.50
2018-09-02T13:43:58.754Z,24.49
2018-09-02T13:46:27.009Z,24.63
2018-09-02T13:48:55.548Z,24.71
2018-09-02T13:51:23.868Z,24.66
2018-09-02T13:53:52.051Z,24.52
2018-09-02T13:56:20.246Z,24.37
2018-09-02T13:58:48.566Z,24.31
2018-09-02T14:01:16.811Z,24.53
2018-09-02T14:03:45.025Z,25.00
2018-09-02T14:06:13.322Z,25.12
2018-09-02T14:08:41.667Z,25.24
2018-09-02T14:11:16.512Z,25.30
2018-09-02T14:13:44.746Z,25.24
2018-09-02T14:16:12.954Z,25.15
2018-09-02T14:18:41.238Z,25.21
2018-09-02T14:21:09.619Z,25.57
2018-09-02T14:23:37.817Z,25.86
2018-09-02T14:26:06.158Z,26.12
2018-09-02T14:28:34.473Z,26.26
2018-09-02T14:31:02.965Z,26.24
2018-09-02T14:33:31.219Z,25.98
2018-09-02T14:35:59.547Z,25.68
2018-09-02T14:38:27.868Z,25.33
2018-09-02T14:40:56.513Z,25.01
2018-09-02T14:43:24.942Z,24.79
2018-09-02T14:45:53.209Z,24.57
2018-09-02T14:48:21.483Z,24.39
2018-09-02T14:50:49.841Z,24.28
2018-09-02T14:53:17.933Z,24.24
2018-09-02T14:55:46.372Z,24.21
2018-09-02T14:58:14.739Z,24.17
2018-09-02T15:00:43.112Z,24.13
2018-09-02T15:03:11.338Z,24.08
2018-09-02T15:05:39.594Z,24.10
2018-09-02T15:08:07.887Z,24.10
2018-09-02T15:10:36.091Z,24.11
2018-09-02T15:13:04.275Z,24.07
2018-09-02T15:15:32.513Z,24.01
2018-09-02T15:18:00.739Z,23.93
2018-09-02T15:20:28.943Z,23.88
2018-09-02T15:22:57.255Z,23.85
2018-09-02T15:25:25.475Z,23.83
2018-09-02T15:27:53.718Z,23.83
2018-09-02T15:30:22.599Z,23.88
2018-09-02T15:32:50.789Z,23.95
2018-09-02T15:35:19.090Z,23.94
2018-09-02T15:37:47.295Z,23.93
2018-09-02T15:40:15.574Z,23.91
2018-09-02T15:42:43.772Z,23.89
2018-09-02T15:45:12.054Z,23.87
2018-09-02T15:47:40.288Z,23.91
2018-09-02T15:50:08.920Z,23.97
2018-09-02T15:52:37.249Z,24.00
2018-09-02T15:55:05.603Z,24.08
2018-09-02T15:57:33.834Z,24.22
2018-09-02T16:00:02.069Z,24.32
2018-09-02T16:02:30.393Z,24.43
2018-09-02T16:04:58.553Z,24.61
2018-09-02T16:07:30.466Z,25.03
2018-09-02T16:09:59.501Z,25.13
2018-09-02T16:12:27.748Z,25.06
2018-09-02T16:14:56.508Z,25.07
2018-09-02T16:17:24.780Z,25.44
2018-09-02T16:19:53.023Z,25.60
2018-09-02T16:22:21.268Z,25.50
2018-09-02T16:24:49.479Z,25.35
2018-09-02T16:27:17.678Z,25.17
2018-09-02T16:29:46.023Z,24.93
2018-09-02T16:32:14.125Z,24.74
2018-09-02T16:34:42.372Z,24.57
2018-09-02T16:37:10.636Z,24.49
2018-09-02T16:39:39.355Z,24.32
2018-09-02T16:42:07.531Z,24.16
2018-09-02T16:44:35.734Z,24.13
2018-09-02T16:47:03.992Z,24.11
2018-09-02T16:49:32.238Z,24.08
2018-09-02T16:52:00.447Z,23.99
2018-09-02T16:54:28.640Z,23.93
2018-09-02T16:56:56.813Z,23.84
2018-09-02T16:59:25.095Z,23.77
2018-09-02T17:01:53.297Z,23.70
2018-09-02T17:04:22.406Z,23.57
2018-09-02T17:06:50.613Z,23.55
2018-09-02T17:09:18.855Z,23.47
2018-09-02T17:11:47.230Z,23.42
2018-09-02T17:14:15.337Z,23.34
2018-09-02T17:16:43.623Z,23.30
2018-09-02T17:19:17.745Z,23.23
2018-09-02T17:21:45.992Z,23.18
2018-09-02T17:24:14.258Z,23.13
2018-09-02T17:26:42.468Z,23.06
2018-09-02T17:29:10.715Z,23.01
2018-09-02T17:31:38.889Z,22.97
2018-09-02T17:34:07.243Z,22.93
2018-09-02T17:36:35.459Z,22.89
2018-09-02T17:39:04.823Z,22.86
2018-09-02T17:41:33.014Z,22.84
2018-09-02T17:44:01.225Z,22.80
2018-09-02T17:46:29.426Z,22.79
2018-09-02T17:48:57.636Z,22.74
2018-09-02T17:51:25.875Z,22.72
2018-09-02T17:53:54.133Z,22.68
2018-09-02T17:56:22.352Z,22.67
2018-09-02T17:58:50.616Z,22.64
2018-09-02T18:01:18.911Z,22.62
2018-09-02T18:03:47.194Z,22.58
2018-09-02T18:06:15.424Z,22.57
2018-09-02T18:08:43.673Z,22.54
2018-09-02T18:11:11.934Z,22.50
2018-09-02T18:13:40.383Z,22.50
2018-09-02T18:16:09.144Z,22.48
2018-09-02T18:18:37.855Z,22.44
2018-09-02T18:21:06.072Z,22.42
2018-09-02T18:23:34.257Z,22.39
2018-09-02T18:26:02.655Z,22.37
2018-09-02T18:28:37.504Z,22.35
2018-09-02T18:31:07.107Z,22.31
2018-09-02T18:33:35.290Z,22.29
2018-09-02T18:36:03.516Z,22.28
2018-09-02T18:38:31.755Z,22.26
2018-09-02T18:40:59.960Z,22.25
2018-09-02T18:43:28.403Z,22.23
2018-09-02T18:45:56.672Z,22.22
2018-09-02T18:48:24.879Z,22.20
2018-09-02T18:50:53.091Z,22.17
2018-09-02T18:53:21.315Z,22.15
2018-09-02T18:55:49.528Z,22.14
2018-09-02T18:58:17.759Z,22.12
2018-09-02T19:00:46.043Z,22.08
2018-09-02T19:03:14.302Z,22.08
2018-09-02T19:05:42.455Z,22.06
2018-09-02T19:08:10.679Z,22.04
2018-09-02T19:10:39.002Z,22.02
2018-09-02T19:13:08.237Z,21.99
2018-09-02T19:15:36.494Z,21.98
2018-09-02T19:18:04.695Z,21.97
2018-09-02T19:20:32.910Z,21.93
2018-09-02T19:23:01.108Z,21.93
2018-09-02T19:25:29.356Z,21.93
2018-09-02T19:27:57.608Z,21.92
2018-09-02T19:30:25.791Z,21.90
2018-09-02T19:32:54.018Z,21.91
2018-09-02T19:35:22.438Z,21.90
2018-09-02T19:37:50.723Z,21.89
2018-09-02T19:40:18.925Z,21.89
2018-09-02T19:42:47.082Z,21.87
2018-09-02T19:45:15.316Z,21.86
2018-09-02T19:47:43.542Z,21.85
2018-09-02T19:50:11.724Z,21.85
2018-09-02T19:52:39.922Z,21.83
2018-09-02T19:55:08.140Z,21.83
2018-09-02T19:57:36.368Z,21.82
2018-09-02T20:00:04.778Z,21.80
2018-09-02T20:02:33.049Z,21.78
2018-09-02T20:05:01.271Z,21.78
2018-09-02T20:07:29.600Z,21.75
2018-09-02T20:09:58.117Z,21.75
2018-09-02T20:12:26.358Z,21.76
2018-09-02T20:14:54.572Z,21.75
2018-09-02T20:17:22.898Z,21.74
2018-09-02T20:19:51.094Z,21.73
2018-09-02T20:22:19.333Z,21.73
2018-09-02T20:24:47.963Z,21.71
2018-09-02T20:27:16.276Z,21.69
2018-09-02T20:29:44.563Z,21.68
2018-09-02T20:32:12.897Z,21.68
2018-09-02T20:34:41.285Z,21.66
2018-09-02T20:37:09.607Z,21.65
2018-09-02T20:39:37.871Z,21.64
2018-09-02T20:42:06.217Z,21.63
2018-09-02T20:44:34.472Z,21.64
2018-09-02T20:47:02.872Z,21.62
2018-09-02T20:49:31.072Z,21.61
2018-09-02T20:51:59.471Z,21.61
2018-09-02T20:54:27.819Z,21.60
2018-09-02T20:56:56.018Z,21.58
2018-09-02T20:59:24.214Z,21.57
2018-09-02T21:01:52.584Z,21.57
2018-09-02T21:04:20.876Z,21.54
2018-09-02T21:06:49.099Z,21.52
2018-09-02T21:09:18.033Z,21.51
2018-09-02T21:11:46.416Z,21.50
2018-09-02T21:14:14.643Z,21.51
2018-09-02T21:16:42.843Z,21.51
2018-09-02T21:19:11.128Z,21.49
2018-09-02T21:21:39.352Z,21.49
2018-09-02T21:24:07.558Z,21.48
2018-09-02T21:26:35.834Z,21.45
2018-09-02T21:29:04.079Z,21.46
2018-09-02T21:31:32.355Z,21.45
2018-09-02T21:34:00.568Z,21.44
2018-09-02T21:36:28.892Z,21.43
2018-09-02T21:38:57.187Z,21.41
2018-09-02T21:41:25.396Z,21.40
2018-09-02T21:43:53.652Z,21.38
2018-09-02T21:46:21.879Z,21.35
2018-09-02T21:48:50.053Z,21.34
2018-09-02T21:51:18.303Z,21.33
2018-09-02T21:53:46.474Z,21.32
2018-09-02T21:56:14.682Z,21.30
2018-09-02T21:58:42.883Z,21.28
2018-09-02T22:01:11.126Z,21.28
2018-09-02T22:03:39.377Z,21.29
2018-09-02T22:06:07.639Z,21.28
2018-09-02T22:08:36.134Z,21.29
2018-09-02T22:11:04.384Z,21.27
2018-09-02T22:13:32.728Z,21.26
2018-09-02T22:16:00.939Z,21.26
2018-09-02T22:18:29.187Z,21.24
2018-09-02T22:20:57.439Z,21.24
2018-09-02T22:23:25.709Z,21.22
2018-09-02T22:25:53.934Z,21.19
2018-09-02T22:28:22.175Z,21.17
2018-09-02T22:30:50.386Z,21.16
2018-09-02T22:33:18.691Z,21.14
2018-09-02T22:35:46.894Z,21.13
2018-09-02T22:38:15.403Z,21.10
2018-09-02T22:40:43.975Z,21.10
2018-09-02T22:43:12.226Z,21.10
2018-09-02T22:45:40.430Z,21.11
2018-09-02T22:48:08.938Z,21.11
2018-09-02T22:50:37.134Z,21.12
2018-09-02T22:53:05.319Z,21.13
2018-09-02T22:55:33.555Z,21.15
2018-09-02T22:58:01.955Z,21.14
2018-09-02T23:00:30.037Z,21.13
2018-09-02T23:02:58.329Z,21.13
2018-09-02T23:05:26.544Z,21.13
2018-09-02T23:07:54.799Z,21.13
2018-09-02T23:10:23.061Z,21.13
2018-09-02T23:12:51.384Z,21.13
2018-09-02T23:15:19.566Z,21.11
2018-09-02T23:17:47.804Z,21.11
2018-09-02T23:20:16.888Z,21.11
2018-09-02T23:22:45.115Z,21.08
2018-09-02T23:25:13.451Z,21.06
2018-09-02T23:27:41.631Z,21.06
2018-09-02T23:30:09.839Z,21.03
2018-09-02T23:32:38.019Z,21.02
2018-09-02T23:35:12.570Z,21.01
2018-09-02T23:37:40.843Z,20.98
2018-09-02T23:40:09.038Z,20.95
2018-09-02T23:42:37.227Z,20.95
2018-09-02T23:45:05.911Z,20.92
2018-09-02T23:47:34.133Z,20.91
2018-09-02T23:50:02.362Z,20.90
2018-09-02T23:52:30.555Z,20.89
2018-09-02T23:54:58.748Z,20.87
2018-09-02T23:57:26.942Z,20.89
2018-09-02T23:59:55.143Z,20.87
